createdAt,value
2022-10-17T00:02:11.832Z,12.30
2022-10-17T00:04:43.787Z,12.80
2022-10-17T00:07:15.521Z,13.80
2022-10-17T00:09:47.401Z,10.10
2022-10-17T00:12:19.116Z,14.30
2022-10-17T00:17:20.810Z,13.60
2022-10-17T00:19:52.451Z,19.80
2022-10-17T00:22:24.095Z,11.10
2022-10-17T00:24:55.785Z,8.60
2022-10-17T00:27:27.856Z,7.80
2022-10-17T00:29:59.723Z,10.80
2022-10-17T00:35:02.720Z,7.40
2022-10-17T00:37:34.957Z,8.30
2022-10-17T00:40:07.451Z,10.80
2022-10-17T00:42:39.056Z,9.90
2022-10-17T00:47:49.914Z,10.30
2022-10-17T00:50:21.856Z,8.80
2022-10-17T00:52:54.598Z,10.80
2022-10-17T00:55:30.101Z,8.70
2022-10-17T00:58:02.365Z,10.80
2022-10-17T01:00:35.961Z,8.60
2022-10-17T01:03:08.930Z,11.10
2022-10-17T01:05:40.449Z,7.10
2022-10-17T01:08:12.052Z,9.90
2022-10-17T01:10:50.186Z,9.10
2022-10-17T01:13:25.806Z,9.60
2022-10-17T01:16:00.980Z,8.80
2022-10-17T01:18:37.978Z,8.70
2022-10-17T01:21:40.939Z,8.30
2022-10-17T01:24:49.977Z,13.00
2022-10-17T01:27:34.234Z,9.20
2022-10-17T01:30:25.568Z,10.50
2022-10-17T01:32:57.758Z,12.70
2022-10-17T01:35:31.444Z,8.50
2022-10-17T01:38:06.959Z,9.20
2022-10-17T01:40:39.821Z,8.20
2022-10-17T01:43:13.043Z,9.40
2022-10-17T01:45:46.725Z,11.60
2022-10-17T01:48:20.446Z,8.60
2022-10-17T01:50:52.495Z,9.60
2022-10-17T01:53:25.898Z,9.40
2022-10-17T01:58:35.279Z,9.90
2022-10-17T02:01:08.233Z,10.70
2022-10-17T02:03:39.954Z,7.60
2022-10-17T02:06:11.903Z,7.90
2022-10-17T02:08:47.368Z,10.30
2022-10-17T02:11:20.281Z,8.40
2022-10-17T02:14:00.839Z,9.80
2022-10-17T02:16:37.261Z,8.00
2022-10-17T02:19:32.263Z,7.90
2022-10-17T02:22:09.860Z,7.00
2022-10-17T02:24:43.952Z,9.00
2022-10-17T02:27:22.047Z,11.00
2022-10-17T02:29:57.406Z,10.90
2022-10-17T02:32:30.559Z,6.50
2022-10-17T02:35:03.464Z,7.30
2022-10-17T02:37:35.100Z,9.40
2022-10-17T02:40:08.882Z,10.40
2022-10-17T02:42:42.421Z,7.20
2022-10-17T02:45:14.322Z,10.40
2022-10-17T02:47:50.115Z,7.60
2022-10-17T02:50:21.668Z,13.00
2022-10-17T02:52:54.612Z,9.90
2022-10-17T02:55:29.625Z,8.60
2022-10-17T02:58:02.407Z,10.50
2022-10-17T03:00:34.011Z,10.90
2022-10-17T03:05:36.782Z,10.50
2022-10-17T03:08:13.043Z,8.50
2022-10-17T03:10:44.544Z,8.20
2022-10-17T03:13:16.065Z,10.20
2022-10-17T03:15:47.636Z,8.90
2022-10-17T03:18:19.044Z,8.80
2022-10-17T03:20:51.143Z,9.70
2022-10-17T03:23:23.484Z,9.90
2022-10-17T03:28:25.270Z,13.10
2022-10-17T03:30:57.160Z,13.90
2022-10-17T03:33:28.945Z,11.70
2022-10-17T03:36:00.510Z,12.60
2022-10-17T03:41:02.814Z,9.00
2022-10-17T03:43:34.548Z,12.20
2022-10-17T03:46:06.638Z,8.40
2022-10-17T03:48:38.658Z,11.60
2022-10-17T03:53:45.505Z,14.40
2022-10-17T03:56:18.546Z,10.70
2022-10-17T03:58:55.255Z,16.80
2022-10-17T04:01:27.231Z,10.40
2022-10-17T04:06:31.567Z,10.40
2022-10-17T04:09:03.767Z,10.00
2022-10-17T04:11:45.688Z,17.20
2022-10-17T04:14:17.421Z,14.00
2022-10-17T04:16:49.202Z,15.10
2022-10-17T04:19:23.862Z,11.70
2022-10-17T04:21:55.699Z,12.10
2022-10-17T04:24:28.117Z,14.80
2022-10-17T04:27:23.030Z,14.90
2022-10-17T04:29:54.735Z,10.50
2022-10-17T04:32:29.201Z,15.90
2022-10-17T04:35:27.377Z,17.60
2022-10-17T04:38:04.688Z,13.60
2022-10-17T04:40:36.770Z,10.80
2022-10-17T04:43:08.658Z,12.70
2022-10-17T04:45:41.339Z,13.80
2022-10-17T04:50:43.759Z,12.40
2022-10-17T04:53:32.230Z,10.80
2022-10-17T04:56:08.531Z,21.30
2022-10-17T04:58:40.573Z,13.70
2022-10-17T05:01:15.421Z,13.00
2022-10-17T05:03:47.399Z,12.30
2022-10-17T05:06:20.682Z,11.40
2022-10-17T05:09:01.096Z,11.90
2022-10-17T05:11:34.019Z,16.90
2022-10-17T05:14:06.451Z,15.10
2022-10-17T05:16:38.282Z,15.60
2022-10-17T05:19:10.569Z,10.60
2022-10-17T05:21:47.206Z,10.70
2022-10-17T05:24:19.137Z,9.70
2022-10-17T05:26:52.798Z,10.90
2022-10-17T05:29:25.147Z,15.20
2022-10-17T05:34:34.149Z,9.00
2022-10-17T05:37:05.831Z,11.20
2022-10-17T05:39:38.521Z,13.20
2022-10-17T05:42:11.896Z,10.30
2022-10-17T05:44:43.482Z,10.00
2022-10-17T05:47:15.310Z,10.40
2022-10-17T05:49:51.531Z,9.90
2022-10-17T05:52:29.040Z,11.00
2022-10-17T05:55:13.007Z,20.10
2022-10-17T05:57:44.986Z,12.70
2022-10-17T06:00:19.485Z,12.80
2022-10-17T06:02:55.659Z,12.80
2022-10-17T06:05:28.641Z,10.00
2022-10-17T06:08:02.108Z,15.60
2022-10-17T06:10:37.039Z,10.50
2022-10-17T06:13:08.733Z,15.70
2022-10-17T06:18:13.679Z,11.40
2022-10-17T06:20:46.212Z,11.00
2022-10-17T06:23:19.882Z,18.10
2022-10-17T06:26:06.621Z,10.50
2022-10-17T06:28:38.285Z,16.90
2022-10-17T06:31:11.055Z,13.90
2022-10-17T06:33:42.733Z,13.50
2022-10-17T06:36:16.216Z,14.10
2022-10-17T06:38:49.000Z,10.50
2022-10-17T06:41:37.395Z,12.30
2022-10-17T06:44:14.101Z,11.20
2022-10-17T06:47:01.805Z,9.80
2022-10-17T06:49:34.882Z,11.90
2022-10-17T06:52:22.839Z,16.30
2022-10-17T06:55:21.335Z,11.20
2022-10-17T06:58:12.534Z,10.40
2022-10-17T07:01:04.102Z,15.70
2022-10-17T07:03:37.885Z,14.70
2022-10-17T07:06:11.490Z,14.00
2022-10-17T07:08:47.530Z,12.20
2022-10-17T07:11:23.087Z,14.00
2022-10-17T07:13:56.795Z,14.80
2022-10-17T07:16:28.574Z,16.50
2022-10-17T07:19:08.599Z,12.20
2022-10-17T07:21:43.758Z,15.00
2022-10-17T07:24:16.887Z,12.40
2022-10-17T07:26:52.495Z,14.80
2022-10-17T07:29:25.116Z,16.80
2022-10-17T07:32:10.403Z,13.00
2022-10-17T07:34:42.948Z,14.20
2022-10-17T07:37:15.537Z,9.60
2022-10-17T07:39:52.934Z,12.90
2022-10-17T07:42:24.654Z,9.10
2022-10-17T07:44:58.628Z,12.50
2022-10-17T07:47:36.172Z,11.40
2022-10-17T07:50:11.727Z,11.50
2022-10-17T07:52:44.234Z,9.50
2022-10-17T07:55:15.668Z,10.60
2022-10-17T07:57:47.487Z,17.30
2022-10-17T08:00:19.539Z,13.00
2022-10-17T08:02:50.963Z,8.90
2022-10-17T08:05:22.625Z,9.10
2022-10-17T08:07:55.715Z,9.40
2022-10-17T08:10:29.647Z,10.20
2022-10-17T08:13:01.407Z,12.40
2022-10-17T08:15:32.899Z,16.40
2022-10-17T08:18:04.518Z,12.30
2022-10-17T08:20:36.003Z,9.00
2022-10-17T08:23:07.418Z,8.80
2022-10-17T08:25:40.862Z,9.10
2022-10-17T08:28:12.425Z,14.80
2022-10-17T08:30:44.208Z,7.50
2022-10-17T08:35:45.537Z,8.30
2022-10-17T08:38:20.821Z,19.20
2022-10-17T08:40:53.667Z,12.60
2022-10-17T08:43:35.759Z,9.50
2022-10-17T08:46:08.651Z,10.70
2022-10-17T08:48:46.363Z,8.80
2022-10-17T08:51:20.035Z,10.10
2022-10-17T08:53:56.513Z,8.00
2022-10-17T08:56:49.290Z,7.10
2022-10-17T08:59:23.370Z,12.70
2022-10-17T09:01:57.835Z,7.70
2022-10-17T09:04:57.777Z,7.60
2022-10-17T09:07:32.843Z,7.80
2022-10-17T09:10:10.805Z,9.70
2022-10-17T09:12:45.609Z,8.60
2022-10-17T09:15:33.312Z,8.70
2022-10-17T09:18:06.674Z,9.10
2022-10-17T09:20:40.860Z,7.10
2022-10-17T09:23:16.906Z,8.90
2022-10-17T09:25:49.252Z,6.90
2022-10-17T09:28:22.893Z,8.00
2022-10-17T09:30:57.748Z,9.50
2022-10-17T09:33:35.119Z,6.50
2022-10-17T09:36:15.158Z,12.00
2022-10-17T09:38:49.307Z,11.80
2022-10-17T09:44:19.222Z,6.10
2022-10-17T09:47:14.532Z,6.10
2022-10-17T09:49:48.651Z,5.10
2022-10-17T09:52:21.328Z,5.50
2022-10-17T09:54:54.380Z,6.20
2022-10-17T09:57:26.892Z,8.40
2022-10-17T10:00:05.580Z,7.60
2022-10-17T10:02:45.079Z,5.20
2022-10-17T10:05:20.682Z,10.40
2022-10-17T10:08:05.198Z,8.60
2022-10-17T10:10:36.946Z,7.50
2022-10-17T10:13:21.865Z,6.10
2022-10-17T10:15:53.567Z,5.70
2022-10-17T10:18:35.993Z,6.70
2022-10-17T10:21:12.995Z,11.00
2022-10-17T10:23:45.537Z,5.00
2022-10-17T10:26:25.183Z,5.70
2022-10-17T10:28:59.545Z,5.80
2022-10-17T10:31:33.686Z,5.00
2022-10-17T10:34:12.992Z,5.60
2022-10-17T10:36:59.758Z,4.50
2022-10-17T10:39:45.497Z,4.20
2022-10-17T10:42:30.776Z,4.80
2022-10-17T10:45:23.712Z,4.90
2022-10-17T10:48:02.034Z,4.70
2022-10-17T10:50:35.320Z,4.20
2022-10-17T10:53:17.582Z,6.50
2022-10-17T10:55:51.872Z,4.70
2022-10-17T10:58:43.063Z,4.50
2022-10-17T11:01:20.567Z,9.60
2022-10-17T11:03:58.923Z,4.50
2022-10-17T11:06:31.821Z,3.60
2022-10-17T11:09:21.842Z,6.60
2022-10-17T11:12:00.994Z,5.30
2022-10-17T11:14:41.812Z,8.80
2022-10-17T11:17:17.679Z,4.50
2022-10-17T11:19:53.118Z,8.70
2022-10-17T11:22:29.344Z,3.90
2022-10-17T11:25:02.534Z,4.90
2022-10-17T11:27:34.449Z,4.10
2022-10-17T11:30:06.640Z,4.50
2022-10-17T11:32:40.678Z,12.10
2022-10-17T11:35:18.591Z,4.80
2022-10-17T11:37:51.545Z,5.40
2022-10-17T11:40:27.089Z,7.00
2022-10-17T11:43:01.076Z,3.70
2022-10-17T11:45:35.236Z,6.70
2022-10-17T11:48:09.163Z,5.30
2022-10-17T11:53:36.205Z,4.50
2022-10-17T11:56:08.238Z,4.90
2022-10-17T11:58:41.336Z,4.00
2022-10-17T12:01:19.040Z,4.10
2022-10-17T12:04:03.107Z,4.80
2022-10-17T12:06:47.360Z,5.50
2022-10-17T12:09:22.351Z,6.70
2022-10-17T12:11:55.333Z,12.10
2022-10-17T12:14:43.876Z,4.40
2022-10-17T12:17:35.731Z,5.00
2022-10-17T12:20:35.073Z,4.70
2022-10-17T12:23:23.359Z,4.60
2022-10-17T12:26:01.154Z,3.30
2022-10-17T12:28:35.758Z,7.50
2022-10-17T12:31:10.293Z,5.50
2022-10-17T12:33:51.607Z,3.60
2022-10-17T12:36:42.443Z,2.70
2022-10-17T12:39:49.884Z,4.90
2022-10-17T12:42:41.893Z,3.90
2022-10-17T12:45:44.279Z,3.20
2022-10-17T12:54:00.621Z,3.10
2022-10-17T12:56:40.519Z,5.40
2022-10-17T12:59:15.391Z,3.40
2022-10-17T13:01:48.993Z,3.00
2022-10-17T13:04:21.188Z,2.70
2022-10-17T13:06:54.597Z,3.10
2022-10-17T13:09:29.579Z,2.80
2022-10-17T13:12:04.614Z,3.20
2022-10-17T13:14:36.211Z,2.60
2022-10-17T13:17:21.448Z,2.70
2022-10-17T13:19:53.084Z,3.50
2022-10-17T13:25:07.754Z,2.70
2022-10-17T13:27:39.354Z,3.00
2022-10-17T13:33:23.303Z,3.30
2022-10-17T13:36:00.428Z,2.50
2022-10-17T13:38:35.709Z,3.20
2022-10-17T13:41:34.686Z,4.90
2022-10-17T13:44:09.255Z,6.00
2022-10-17T13:46:42.352Z,4.00
2022-10-17T13:49:19.981Z,4.00
2022-10-17T13:51:53.614Z,3.50
2022-10-17T13:54:35.561Z,7.10
2022-10-17T13:57:07.786Z,3.40
2022-10-17T13:59:42.435Z,6.60
2022-10-17T14:02:16.964Z,3.40
2022-10-17T14:05:15.724Z,2.90
2022-10-17T14:08:09.373Z,2.90
2022-10-17T14:10:35.663Z,2.90
2022-10-17T14:13:08.426Z,3.30
2022-10-17T14:15:41.158Z,3.40
2022-10-17T14:18:19.165Z,4.80
2022-10-17T14:21:32.193Z,3.20
2022-10-17T14:23:45.966Z,5.80
2022-10-17T14:26:19.944Z,5.70
2022-10-17T14:28:52.824Z,6.10
2022-10-17T14:31:30.866Z,6.30
2022-10-17T14:34:02.706Z,7.20
2022-10-17T14:39:05.197Z,11.60
2022-10-17T14:44:21.727Z,13.50
2022-10-17T14:46:56.064Z,21.10
2022-10-17T14:49:36.033Z,20.00
2022-10-17T14:52:29.979Z,16.70
2022-10-17T14:55:02.539Z,16.00
2022-10-17T14:57:44.399Z,10.40
2022-10-17T15:02:48.816Z,12.00
2022-10-17T15:05:21.299Z,12.80
2022-10-17T15:07:53.511Z,11.20
2022-10-17T15:10:35.377Z,11.20
2022-10-17T15:15:56.711Z,6.00
2022-10-17T15:18:28.281Z,11.30
2022-10-17T15:21:05.272Z,6.50
2022-10-17T15:23:52.472Z,8.00
2022-10-17T15:26:26.023Z,5.90
2022-10-17T15:28:57.592Z,7.10
2022-10-17T15:31:29.027Z,7.30
2022-10-17T15:34:00.545Z,5.50
2022-10-17T15:36:34.636Z,5.60
2022-10-17T15:39:06.425Z,5.60
2022-10-17T15:41:38.000Z,5.00
2022-10-17T15:44:09.865Z,6.00
2022-10-17T15:46:41.378Z,7.10
2022-10-17T15:49:14.663Z,5.90
2022-10-17T15:51:47.203Z,5.20
2022-10-17T15:54:21.161Z,9.20
2022-10-17T15:56:54.406Z,7.70
2022-10-17T15:59:28.787Z,12.50
2022-10-17T16:02:00.354Z,16.60
2022-10-17T16:07:02.484Z,18.90
2022-10-17T16:09:34.300Z,21.20
2022-10-17T16:12:06.548Z,15.40
2022-10-17T16:14:38.002Z,16.70
2022-10-17T16:17:10.525Z,10.50
2022-10-17T16:19:41.934Z,13.40
2022-10-17T16:22:20.696Z,13.20
2022-10-17T16:24:58.499Z,10.50
2022-10-17T16:27:30.249Z,11.30
2022-10-17T16:32:32.213Z,8.80
2022-10-17T16:35:04.401Z,9.30
2022-10-17T16:37:36.436Z,15.30
2022-10-17T16:40:10.115Z,13.20
2022-10-17T16:42:41.743Z,13.10
2022-10-17T16:45:16.524Z,10.80
2022-10-17T16:47:48.410Z,13.80
2022-10-17T16:50:20.246Z,23.20
2022-10-17T16:55:21.736Z,21.80
2022-10-17T16:57:53.722Z,19.50
2022-10-17T17:00:25.252Z,20.00
2022-10-17T17:02:56.991Z,19.90
2022-10-17T17:05:28.647Z,17.60
2022-10-17T17:10:31.549Z,18.10
2022-10-17T17:13:04.617Z,21.50
2022-10-17T17:15:39.187Z,16.80
2022-10-17T17:18:12.464Z,22.10
2022-10-17T17:20:44.798Z,23.70
2022-10-17T17:23:17.049Z,20.20
2022-10-17T17:25:48.545Z,15.10
2022-10-17T17:28:20.353Z,13.50
2022-10-17T17:30:52.293Z,15.00
2022-10-17T17:33:23.843Z,14.80
2022-10-17T17:35:59.082Z,14.80
2022-10-17T17:38:31.215Z,18.10
2022-10-17T17:41:02.679Z,15.80
2022-10-17T17:43:34.389Z,18.50
2022-10-17T17:46:06.004Z,18.80
2022-10-17T17:48:39.458Z,29.10
2022-10-17T17:51:12.314Z,28.90
2022-10-17T17:53:43.695Z,37.10
2022-10-17T17:58:48.472Z,36.50
2022-10-17T18:01:24.010Z,41.60
2022-10-17T18:03:56.675Z,37.90
2022-10-17T18:06:28.321Z,33.00
2022-10-17T18:09:01.801Z,34.80
2022-10-17T18:11:33.269Z,40.90
2022-10-17T18:14:06.715Z,57.60
2022-10-17T18:16:38.737Z,51.10
2022-10-17T18:19:12.024Z,58.60
2022-10-17T18:21:44.470Z,56.80
2022-10-17T18:24:15.959Z,55.90
2022-10-17T18:26:47.675Z,58.00
2022-10-17T18:29:19.704Z,64.30
2022-10-17T18:31:51.241Z,58.20
2022-10-17T18:34:28.138Z,60.70
2022-10-17T18:37:00.336Z,64.80
2022-10-17T18:39:31.936Z,67.40
2022-10-17T18:44:33.281Z,59.20
2022-10-17T18:47:04.776Z,55.80
2022-10-17T18:49:36.935Z,59.50
2022-10-17T18:52:08.689Z,61.80
2022-10-17T18:57:09.947Z,67.20
2022-10-17T19:02:13.856Z,56.90
2022-10-17T19:04:45.451Z,62.00
2022-10-17T19:07:20.357Z,42.00
2022-10-17T19:09:52.649Z,38.20
2022-10-17T19:12:24.434Z,46.60
2022-10-17T19:14:56.755Z,60.50
2022-10-17T19:17:28.616Z,50.90
2022-10-17T19:20:01.062Z,50.00
2022-10-17T19:22:33.589Z,57.50
2022-10-17T19:25:06.098Z,49.20
2022-10-17T19:27:37.888Z,49.20
2022-10-17T19:30:12.852Z,48.50
2022-10-17T19:32:44.229Z,46.00
2022-10-17T19:35:15.606Z,48.10
2022-10-17T19:37:46.917Z,45.40
2022-10-17T19:40:18.614Z,47.30
2022-10-17T19:42:50.204Z,49.90
2022-10-17T19:45:21.803Z,46.80
2022-10-17T19:47:53.448Z,50.00
2022-10-17T19:50:25.829Z,57.40
2022-10-17T19:52:57.350Z,44.10
2022-10-17T19:55:28.777Z,47.60
2022-10-17T19:58:02.939Z,51.20
2022-10-17T20:00:34.343Z,49.20
2022-10-17T20:03:06.530Z,47.30
2022-10-17T20:05:40.546Z,56.20
2022-10-17T20:08:12.085Z,55.80
2022-10-17T20:10:43.604Z,41.50
2022-10-17T20:13:15.324Z,61.30
2022-10-17T20:18:16.964Z,52.90
2022-10-17T20:23:18.275Z,45.40
2022-10-17T20:26:01.066Z,46.70
2022-10-17T20:28:41.274Z,54.90
2022-10-17T20:31:12.770Z,46.90
2022-10-17T20:33:44.875Z,44.40
2022-10-17T20:36:16.791Z,46.50
2022-10-17T20:38:48.480Z,48.80
2022-10-17T20:41:19.984Z,41.50
2022-10-17T20:43:53.182Z,39.50
2022-10-17T20:49:18.795Z,48.20
2022-10-17T20:51:50.236Z,52.00
2022-10-17T20:54:22.691Z,46.40
2022-10-17T20:56:54.156Z,46.00
2022-10-17T20:59:26.076Z,42.50
2022-10-17T21:01:57.542Z,41.10
2022-10-17T21:07:22.620Z,40.80
2022-10-17T21:09:54.288Z,36.30
2022-10-17T21:12:31.466Z,32.90
2022-10-17T21:15:14.925Z,34.50
2022-10-17T21:17:46.382Z,36.00
2022-10-17T21:20:18.036Z,41.00
2022-10-17T21:22:49.568Z,33.00
2022-10-17T21:27:51.684Z,47.20
2022-10-17T21:30:23.172Z,51.60
2022-10-17T21:32:57.569Z,40.10
2022-10-17T21:35:29.369Z,40.30
2022-10-17T21:38:00.855Z,40.10
2022-10-17T21:40:32.779Z,33.20
2022-10-17T21:43:04.331Z,31.40
2022-10-17T21:45:38.700Z,30.80
2022-10-17T21:48:12.924Z,37.80
2022-10-17T21:50:44.825Z,35.40
2022-10-17T21:53:16.268Z,41.30
2022-10-17T21:55:47.818Z,52.10
2022-10-17T21:58:19.328Z,48.00
2022-10-17T22:00:51.232Z,47.40
2022-10-17T22:03:22.912Z,48.30
2022-10-17T22:06:06.851Z,41.00
2022-10-17T22:08:45.907Z,50.50
2022-10-17T22:11:18.675Z,48.40
2022-10-17T22:13:50.221Z,55.90
2022-10-17T22:16:22.021Z,61.40
2022-10-17T22:18:53.827Z,56.10
2022-10-17T22:21:25.487Z,55.20
2022-10-17T22:24:00.657Z,55.10
2022-10-17T22:26:33.750Z,50.40
2022-10-17T22:29:05.944Z,47.30
2022-10-17T22:31:37.503Z,48.10
2022-10-17T22:34:08.897Z,48.10
2022-10-17T22:36:40.566Z,46.90
2022-10-17T22:39:12.100Z,41.80
2022-10-17T22:41:43.831Z,45.20
2022-10-17T22:46:45.544Z,36.80
2022-10-17T22:49:17.164Z,34.80
2022-10-17T22:51:48.830Z,43.00
2022-10-17T22:54:20.829Z,43.60
2022-10-17T22:59:24.028Z,38.90
2022-10-17T23:01:58.227Z,34.10
2022-10-17T23:04:29.752Z,32.10
2022-10-17T23:07:01.416Z,34.70
2022-10-17T23:09:33.115Z,33.10
2022-10-17T23:12:04.833Z,31.10
2022-10-17T23:17:09.618Z,38.40
2022-10-17T23:19:41.168Z,28.40
2022-10-17T23:24:43.151Z,33.80
2022-10-17T23:27:14.917Z,48.10
2022-10-17T23:32:16.359Z,48.80
2022-10-17T23:34:48.087Z,48.10
2022-10-17T23:37:19.816Z,41.50
2022-10-17T23:42:21.335Z,55.70
2022-10-17T23:44:52.757Z,48.20
2022-10-17T23:47:24.246Z,48.10
2022-10-17T23:49:55.862Z,47.30
2022-10-17T23:52:27.431Z,39.20
2022-10-17T23:54:58.984Z,49.30
2022-10-17T23:57:30.723Z,50.40
